Time;durP1;ratioP1;P1;durP2;ratioP2;P2;SDS_P1;SDS_P2;PMS_P1;PMS_P2;Temp;Humidity;BMP_temperature;BMP_pressure;BME280_temperature;BME280_humidity;BME280_pressure;Samples;Min_cycle;Max_cycle;Signal;HPM_P1;HPM_P2
2022/12/20 00:01:43;;;;;;;;;10.75;10.25;;;;;-147.17;100.00;-15917.19;4981071;28;51481;-51
2022/12/20 00:04:10;;;;;;;;;11.00;10.33;;;;;-147.17;100.00;-15917.19;4983150;28;51165;-50
2022/12/20 00:06:35;;;;;;;;;10.25;10.00;;;;;-147.17;100.00;-15917.19;4984317;28;52262;-49
2022/12/20 00:09:04;;;;;;;;;10.00;10.00;;;;;-147.17;100.00;-15917.19;4995074;28;51117;-49
2022/12/20 00:11:30;;;;;;;;;8.75;8.75;;;;;-147.17;100.00;-15917.19;4984619;28;51131;-51
2022/12/20 00:13:56;;;;;;;;;10.00;8.25;;;;;-147.17;100.00;-15917.19;4994214;28;51091;-51
2022/12/20 00:16:24;;;;;;;;;7.00;7.00;;;;;-147.17;100.00;-15917.19;4989587;28;51937;-53
2022/12/20 00:18:52;;;;;;;;;7.33;7.33;;;;;-147.17;100.00;-15917.19;4987543;28;51146;-52
2022/12/20 00:21:17;;;;;;;;;7.25;5.50;;;;;-147.17;100.00;-15917.19;4984272;28;51315;-49
2022/12/20 00:23:42;;;;;;;;;11.25;10.50;;;;;-147.17;100.00;-15917.19;4993872;28;51059;-49
2022/12/20 00:26:13;;;;;;;;;7.67;6.67;;;;;-147.17;100.00;-15917.19;4993451;28;51905;-51
2022/12/20 00:28:40;;;;;;;;;7.00;7.00;;;;;-147.17;100.00;-15917.19;4990463;28;51180;-52
2022/12/20 00:31:08;;;;;;;;;2.67;2.00;;;;;-147.17;100.00;-15917.19;4985540;28;51095;-55
2022/12/20 00:33:36;;;;;;;;;10.00;8.67;;;;;-147.17;100.00;-15917.19;4987618;28;51129;-50
2022/12/20 00:36:02;;;;;;;;;9.67;7.33;;;;;-147.17;100.00;-15917.19;4994196;28;51887;-51
2022/12/20 00:38:27;;;;;;;;;7.00;6.00;;;;;-147.17;100.00;-15917.19;4993035;28;51128;-49
2022/12/20 00:40:59;;;;;;;;;9.00;8.00;;;;;-147.17;100.00;-15917.19;4979950;28;52368;-52
2022/12/20 00:43:24;;;;;;;;;9.00;8.67;;;;;-147.17;100.00;-15917.19;4990354;28;51118;-57
2022/12/20 00:45:49;;;;;;;;;6.75;6.75;;;;;-147.17;100.00;-15917.19;4988310;28;51191;-51
2022/12/20 00:48:15;;;;;;;;;10.50;8.25;;;;;-147.17;100.00;-15917.19;4992003;28;51248;-52
2022/12/20 00:50:40;;;;;;;;;7.75;7.00;;;;;-147.17;100.00;-15917.19;4984191;28;51274;-57
2022/12/20 00:53:08;;;;;;;;;8.00;7.00;;;;;-147.17;100.00;-15917.19;4990706;28;51363;-51
2022/12/20 00:55:34;;;;;;;;;9.25;9.25;;;;;-147.17;100.00;-15917.19;4981615;28;53011;-52
2022/12/20 00:57:59;;;;;;;;;7.50;7.25;;;;;-147.17;100.00;-15917.19;4990910;28;51169;-50
2022/12/20 01:00:24;;;;;;;;;8.50;8.50;;;;;-147.17;100.00;-15917.19;4993748;28;51525;-50
2022/12/20 01:02:50;;;;;;;;;9.67;8.00;;;;;-147.17;100.00;-15917.19;4993115;28;51330;-50
2022/12/20 01:05:15;;;;;;;;;9.67;9.33;;;;;-147.17;100.00;-15917.19;4992071;28;51170;-50
2022/12/20 01:07:40;;;;;;;;;9.00;8.00;;;;;-147.17;100.00;-15917.19;4985788;28;51688;-52
2022/12/20 01:10:06;;;;;;;;;8.25;7.75;;;;;-147.17;100.00;-15917.19;4993019;28;52210;-53
2022/12/20 01:12:32;;;;;;;;;9.25;9.00;;;;;-147.17;100.00;-15917.19;4995190;28;50847;-50
2022/12/20 01:14:57;;;;;;;;;8.67;7.00;;;;;-147.17;100.00;-15917.19;4981813;28;51070;-52
2022/12/20 01:17:23;;;;;;;;;9.33;9.00;;;;;-147.17;100.00;-15917.19;4970197;28;51215;-52
2022/12/20 01:19:48;;;;;;;;;10.00;9.00;;;;;-147.17;100.00;-15917.19;4993279;28;51131;-51
2022/12/20 01:22:13;;;;;;;;;9.00;9.00;;;;;-147.17;100.00;-15917.19;4987912;28;50920;-51
2022/12/20 01:24:39;;;;;;;;;7.00;7.00;;;;;-147.17;100.00;-15917.19;4987594;28;51816;-50
2022/12/20 01:27:04;;;;;;;;;9.75;8.25;;;;;-147.17;100.00;-15917.19;4988604;28;51323;-51
2022/12/20 01:29:29;;;;;;;;;6.00;6.00;;;;;-147.17;100.00;-15917.19;4985936;28;51078;-52
2022/12/20 01:31:54;;;;;;;;;7.67;7.00;;;;;-147.17;100.00;-15917.19;4975184;28;51516;-54
2022/12/20 01:34:20;;;;;;;;;8.33;8.33;;;;;-147.17;100.00;-15917.19;4989123;28;51851;-51
2022/12/20 01:36:45;;;;;;;;;8.00;8.00;;;;;-147.17;100.00;-15917.19;4981697;28;51356;-48
2022/12/20 01:39:14;;;;;;;;;6.75;6.75;;;;;-147.17;100.00;-15917.19;4991998;28;51031;-51
2022/12/20 01:41:40;;;;;;;;;8.67;8.00;;;;;-147.17;100.00;-15917.19;4991677;28;51210;-52
2022/12/20 01:44:25;;;;;;;;;7.25;7.00;;;;;-147.17;100.00;-15917.19;4980188;28;51957;-52
2022/12/20 01:46:52;;;;;;;;;6.67;5.67;;;;;-147.17;100.00;-15917.19;4985554;28;51076;-50
2022/12/20 01:49:29;;;;;;;;;7.00;7.00;;;;;-147.17;100.00;-15917.19;4993816;28;51133;-53
2022/12/20 01:52:01;;;;;;;;;6.67;6.67;;;;;-147.17;100.00;-15917.19;4981350;28;51386;-52
2022/12/20 01:54:33;;;;;;;;;8.67;8.33;;;;;-147.17;100.00;-15917.19;4992079;28;52123;-52
2022/12/20 01:57:05;;;;;;;;;3.00;3.00;;;;;-147.17;100.00;-15917.19;4985323;28;51120;-51
2022/12/20 01:59:36;;;;;;;;;6.00;6.00;;;;;-147.17;100.00;-15917.19;4985616;28;51228;-51
2022/12/20 02:02:06;;;;;;;;;7.50;7.00;;;;;-147.17;100.00;-15917.19;4981742;28;51217;-50
2022/12/20 02:04:31;;;;;;;;;7.00;6.00;;;;;-147.17;100.00;-15917.19;4991971;28;52077;-51
2022/12/20 02:06:58;;;;;;;;;5.50;5.50;;;;;-147.17;100.00;-15917.19;4987007;28;51085;-53
2022/12/20 02:09:23;;;;;;;;;5.50;5.50;;;;;-147.17;100.00;-15917.19;4991448;28;51409;-51
2022/12/20 02:12:09;;;;;;;;;5.00;5.00;;;;;-147.17;100.00;-15917.19;4989384;28;51384;-52
2022/12/20 02:14:59;;;;;;;;;6.00;6.00;;;;;-147.17;100.00;-15917.19;4978307;28;51030;-50
2022/12/20 02:17:48;;;;;;;;;6.00;6.00;;;;;-147.17;100.00;-15917.19;4984358;28;51318;-52
2022/12/20 02:20:54;;;;;;;;;7.33;6.00;;;;;-147.17;100.00;-15917.19;4993803;28;51163;-51
2022/12/20 02:23:58;;;;;;;;;6.67;6.33;;;;;-147.17;100.00;-15917.19;4976369;28;51110;-50
2022/12/20 02:27:01;;;;;;;;;7.25;6.75;;;;;-147.17;100.00;-15917.19;4971650;28;51729;-50
2022/12/20 02:29:34;;;;;;;;;7.00;7.00;;;;;-147.17;100.00;-15917.19;4981372;28;51276;-51
2022/12/20 02:32:21;;;;;;;;;6.25;6.25;;;;;-147.17;100.00;-15917.19;4985895;28;51451;-49
2022/12/20 02:34:49;;;;;;;;;7.00;6.00;;;;;-147.17;100.00;-15917.19;4988423;28;51922;-49
2022/12/20 02:37:14;;;;;;;;;5.33;5.33;;;;;-147.17;100.00;-15917.19;4984531;28;51229;-50
2022/12/20 02:39:43;;;;;;;;;6.00;5.67;;;;;-147.17;100.00;-15917.19;4992749;28;51145;-51
2022/12/20 02:42:14;;;;;;;;;5.00;5.00;;;;;-147.17;100.00;-15917.19;4989226;28;51916;-51
2022/12/20 02:47:41;;;;;;;;;7.00;6.33;;;;;-147.17;100.00;-15917.19;4976734;28;51489;-52
2022/12/20 02:50:09;;;;;;;;;7.00;7.00;;;;;-147.17;100.00;-15917.19;4987251;28;51097;-52
2022/12/20 02:52:35;;;;;;;;;6.33;5.67;;;;;-147.17;100.00;-15917.19;4979882;28;51118;-49
2022/12/20 02:55:03;;;;;;;;;5.00;5.00;;;;;-147.17;100.00;-15917.19;4985872;28;51263;-50
2022/12/20 02:57:35;;;;;;;;;6.67;6.00;;;;;-147.17;100.00;-15917.19;4985854;28;53211;-53
2022/12/20 03:00:15;;;;;;;;;5.33;4.33;;;;;-147.17;100.00;-15917.19;4992944;28;51034;-50
2022/12/20 03:05:28;;;;;;;;;6.67;6.00;;;;;-147.17;100.00;-15917.19;4991254;28;51089;-49
2022/12/20 03:07:54;;;;;;;;;6.00;6.00;;;;;-147.17;100.00;-15917.19;4983323;28;51353;-51
2022/12/20 03:10:21;;;;;;;;;7.50;6.75;;;;;-147.17;100.00;-15917.19;4990251;28;51118;-50
2022/12/20 03:12:47;;;;;;;;;6.00;5.33;;;;;-147.17;100.00;-15917.19;4992234;28;51156;-50
2022/12/20 03:15:12;;;;;;;;;5.00;5.00;;;;;-147.17;100.00;-15917.19;4987124;28;51034;-50
2022/12/20 03:17:38;;;;;;;;;5.33;5.33;;;;;-147.17;100.00;-15917.19;4981545;28;51142;-50
2022/12/20 03:20:05;;;;;;;;;6.00;6.00;;;;;-147.17;100.00;-15917.19;4992845;28;50931;-53
2022/12/20 03:22:32;;;;;;;;;5.00;5.00;;;;;-147.17;100.00;-15917.19;4990453;28;53417;-51
2022/12/20 03:24:58;;;;;;;;;6.00;5.00;;;;;-147.17;100.00;-15917.19;4991610;28;51146;-50
2022/12/20 03:27:24;;;;;;;;;6.00;5.00;;;;;-147.17;100.00;-15917.19;4981255;28;51109;-50
2022/12/20 03:29:50;;;;;;;;;5.00;4.00;;;;;-147.17;100.00;-15917.19;4992665;28;51137;-50
2022/12/20 03:32:15;;;;;;;;;6.00;4.00;;;;;-147.17;100.00;-15917.19;4985810;28;50938;-51
2022/12/20 03:34:40;;;;;;;;;2.67;2.67;;;;;-147.17;100.00;-15917.19;4990036;28;51231;-51
2022/12/20 03:37:06;;;;;;;;;6.00;6.00;;;;;-147.17;100.00;-15917.19;4984406;28;52716;-52
2022/12/20 03:39:31;;;;;;;;;4.33;4.33;;;;;-147.17;100.00;-15917.19;4989781;28;50964;-50
2022/12/20 03:41:56;;;;;;;;;6.67;4.67;;;;;-147.17;100.00;-15917.19;4989008;28;51152;-50
2022/12/20 03:44:23;;;;;;;;;5.00;4.33;;;;;-147.17;100.00;-15917.19;4973788;28;51064;-50
2022/12/20 03:46:49;;;;;;;;;5.00;5.00;;;;;-147.17;100.00;-15917.19;4989469;28;52691;-51
2022/12/20 03:49:14;;;;;;;;;4.33;4.00;;;;;-147.17;100.00;-15917.19;4979271;28;51491;-51
2022/12/20 03:51:39;;;;;;;;;4.00;4.00;;;;;-147.17;100.00;-15917.19;4956882;28;52089;-51
2022/12/20 03:54:06;;;;;;;;;4.00;4.00;;;;;-147.17;100.00;-15917.19;4989882;28;51436;-50
2022/12/20 03:56:31;;;;;;;;;5.00;5.00;;;;;-147.17;100.00;-15917.19;4980561;28;51923;-50
2022/12/20 03:58:57;;;;;;;;;4.00;4.00;;;;;-147.17;100.00;-15917.19;4970028;28;51479;-52
2022/12/20 04:01:25;;;;;;;;;5.33;4.00;;;;;-147.17;100.00;-15917.19;4973313;28;51778;-49
2022/12/20 04:03:51;;;;;;;;;5.00;5.00;;;;;-147.17;100.00;-15917.19;4973289;28;51380;-50
2022/12/20 04:06:17;;;;;;;;;4.00;4.00;;;;;-147.17;100.00;-15917.19;4977289;28;50976;-52
2022/12/20 04:08:43;;;;;;;;;4.00;3.00;;;;;-147.17;100.00;-15917.19;4974854;28;50932;-50
2022/12/20 04:11:15;;;;;;;;;4.00;4.00;;;;;-147.17;100.00;-15917.19;4988356;28;50963;-52
2022/12/20 04:13:50;;;;;;;;;4.00;3.33;;;;;-147.17;100.00;-15917.19;4984374;28;51296;-49
2022/12/20 04:16:18;;;;;;;;;4.00;4.00;;;;;-147.17;100.00;-15917.19;4984953;28;51623;-50
2022/12/20 04:18:44;;;;;;;;;3.00;3.00;;;;;-147.17;100.00;-15917.19;4975142;28;50988;-50
2022/12/20 04:21:10;;;;;;;;;3.67;3.00;;;;;-147.17;100.00;-15917.19;4982854;28;50974;-51
2022/12/20 04:23:37;;;;;;;;;3.67;3.67;;;;;-147.17;100.00;-15917.19;4986470;28;51236;-50
2022/12/20 04:26:05;;;;;;;;;5.00;4.00;;;;;-147.17;100.00;-15917.19;4983032;28;51980;-52
2022/12/20 04:28:31;;;;;;;;;4.33;3.67;;;;;-147.17;100.00;-15917.19;4964582;28;50987;-50
2022/12/20 04:30:56;;;;;;;;;6.00;6.00;;;;;-147.17;100.00;-15917.19;4982386;28;51084;-50
2022/12/20 04:33:22;;;;;;;;;6.00;5.00;;;;;-147.17;100.00;-15917.19;4990293;28;51067;-52
2022/12/20 04:35:47;;;;;;;;;6.00;5.00;;;;;-147.17;100.00;-15917.19;4975115;28;51636;-49
2022/12/20 04:38:13;;;;;;;;;5.00;4.00;;;;;-147.17;100.00;-15917.19;4978601;28;51250;-50
2022/12/20 04:40:39;;;;;;;;;3.00;2.33;;;;;-147.17;100.00;-15917.19;4988299;28;51504;-51
2022/12/20 04:43:04;;;;;;;;;5.00;5.00;;;;;-147.17;100.00;-15917.19;4985451;28;50918;-53
2022/12/20 04:45:30;;;;;;;;;5.33;5.33;;;;;-147.17;100.00;-15917.19;4976966;28;50982;-52
2022/12/20 04:47:55;;;;;;;;;5.00;5.00;;;;;-147.17;100.00;-15917.19;4985230;28;51216;-52
2022/12/20 04:50:20;;;;;;;;;9.67;6.00;;;;;-147.17;100.00;-15917.19;4986161;28;51109;-50
2022/12/20 04:55:35;;;;;;;;;5.33;5.00;;;;;-147.17;100.00;-15917.19;4993076;28;51208;-52
2022/12/20 04:58:00;;;;;;;;;9.00;7.33;;;;;-147.17;100.00;-15917.19;4983211;28;51176;-50
2022/12/20 05:00:26;;;;;;;;;6.75;6.00;;;;;-147.17;100.00;-15917.19;4995322;28;51039;-51
2022/12/20 05:02:51;;;;;;;;;3.00;3.00;;;;;-147.17;100.00;-15917.19;4993737;28;51432;-49
2022/12/20 05:05:16;;;;;;;;;4.67;4.67;;;;;-147.17;100.00;-15917.19;4991141;28;51808;-51
2022/12/20 05:07:42;;;;;;;;;6.50;6.50;;;;;-147.17;100.00;-15917.19;4992488;28;51047;-50
2022/12/20 05:10:08;;;;;;;;;7.00;6.00;;;;;-147.17;100.00;-15917.19;4993954;28;51273;-51
2022/12/20 05:12:33;;;;;;;;;5.50;5.25;;;;;-147.17;100.00;-15917.19;4974519;28;51417;-50
2022/12/20 05:14:58;;;;;;;;;4.50;4.50;;;;;-147.17;100.00;-15917.19;4983211;28;52200;-49
2022/12/20 05:17:24;;;;;;;;;6.67;6.67;;;;;-147.17;100.00;-15917.19;4974283;28;51288;-51
2022/12/20 05:19:49;;;;;;;;;5.00;4.00;;;;;-147.17;100.00;-15917.19;4991094;28;50924;-50
2022/12/20 05:27:42;;;;;;;;;4.00;4.00;;;;;-147.17;100.00;-15917.19;4984709;28;50954;-49
2022/12/20 05:30:08;;;;;;;;;5.67;5.67;;;;;-147.17;100.00;-15917.19;4991674;28;51105;-51
2022/12/20 05:32:33;;;;;;;;;4.33;4.33;;;;;-147.17;100.00;-15917.19;4986425;28;51130;-51
2022/12/20 05:34:59;;;;;;;;;4.67;4.33;;;;;-147.17;100.00;-15917.19;4987360;28;52149;-50
2022/12/20 05:37:24;;;;;;;;;4.00;4.00;;;;;-147.17;100.00;-15917.19;4981071;28;50907;-51
2022/12/20 05:39:49;;;;;;;;;5.00;5.00;;;;;-147.17;100.00;-15917.19;4991249;28;51354;-49
2022/12/20 05:42:15;;;;;;;;;9.33;9.00;;;;;-147.17;100.00;-15917.19;4986970;28;51272;-50
2022/12/20 05:44:40;;;;;;;;;5.00;5.00;;;;;-147.17;100.00;-15917.19;4967496;28;53741;-50
2022/12/20 05:47:05;;;;;;;;;5.00;5.00;;;;;-147.17;100.00;-15917.19;4985438;28;51146;-52
2022/12/20 05:49:31;;;;;;;;;5.00;4.25;;;;;-147.17;100.00;-15917.19;4988805;28;51108;-49
2022/12/20 05:51:56;;;;;;;;;4.33;4.33;;;;;-147.17;100.00;-15917.19;4989106;28;51309;-51
2022/12/20 05:54:21;;;;;;;;;5.25;5.25;;;;;-147.17;100.00;-15917.19;4989618;28;51328;-51
2022/12/20 05:56:47;;;;;;;;;5.50;5.50;;;;;-147.17;100.00;-15917.19;4991506;28;51250;-51
2022/12/20 05:59:12;;;;;;;;;2.67;2.67;;;;;-147.17;100.00;-15917.19;4991791;28;51301;-50
2022/12/20 06:01:37;;;;;;;;;3.33;3.33;;;;;-147.17;100.00;-15917.19;4987273;28;51403;-49
2022/12/20 06:04:03;;;;;;;;;3.33;3.33;;;;;-147.17;100.00;-15917.19;4985556;28;51767;-49
2022/12/20 06:06:28;;;;;;;;;6.33;6.33;;;;;-147.17;100.00;-15917.19;4979929;28;51205;-52
2022/12/20 06:08:55;;;;;;;;;2.33;2.00;;;;;-147.17;100.00;-15917.19;4986114;28;51018;-51
2022/12/20 06:11:20;;;;;;;;;4.00;4.00;;;;;-147.17;100.00;-15917.19;4993938;28;51025;-49
2022/12/20 06:13:46;;;;;;;;;3.33;3.00;;;;;-147.17;100.00;-15917.19;4993397;28;50987;-52
2022/12/20 06:16:11;;;;;;;;;3.00;2.00;;;;;-147.17;100.00;-15917.19;4992440;28;51107;-51
2022/12/20 06:18:36;;;;;;;;;4.75;4.75;;;;;-147.17;100.00;-15917.19;4981482;28;51203;-51
2022/12/20 06:21:02;;;;;;;;;4.00;4.00;;;;;-147.17;100.00;-15917.19;4992306;28;51428;-52
2022/12/20 06:23:27;;;;;;;;;3.00;3.00;;;;;-147.17;100.00;-15917.19;4993299;28;53118;-51
2022/12/20 06:25:53;;;;;;;;;4.00;4.00;;;;;-147.17;100.00;-15917.19;4986933;28;51015;-52
2022/12/20 06:28:20;;;;;;;;;4.67;4.67;;;;;-147.17;100.00;-15917.19;4987954;28;51174;-51
2022/12/20 06:30:53;;;;;;;;;4.00;4.00;;;;;-147.17;100.00;-15917.19;4985763;28;52052;-53
2022/12/20 06:33:18;;;;;;;;;3.00;3.00;;;;;-147.17;100.00;-15917.19;4981669;28;52105;-51
2022/12/20 06:35:43;;;;;;;;;5.50;5.00;;;;;-147.17;100.00;-15917.19;4982853;28;51346;-53
2022/12/20 06:38:09;;;;;;;;;5.33;4.00;;;;;-147.17;100.00;-15917.19;4983380;28;51120;-51
2022/12/20 06:40:34;;;;;;;;;3.00;3.00;;;;;-147.17;100.00;-15917.19;4988375;28;50876;-54
2022/12/20 06:42:59;;;;;;;;;4.25;4.00;;;;;-147.17;100.00;-15917.19;4980127;28;52517;-51
2022/12/20 06:45:25;;;;;;;;;3.00;3.00;;;;;-147.17;100.00;-15917.19;4976498;28;51405;-50
2022/12/20 06:47:50;;;;;;;;;6.33;5.00;;;;;-147.17;100.00;-15917.19;4979587;28;51376;-51
2022/12/20 06:50:16;;;;;;;;;3.00;3.00;;;;;-147.17;100.00;-15917.19;4977081;28;51063;-53
2022/12/20 06:52:41;;;;;;;;;4.00;4.00;;;;;-147.17;100.00;-15917.19;4982281;28;51734;-51
2022/12/20 06:55:07;;;;;;;;;5.75;5.75;;;;;-147.17;100.00;-15917.19;4980302;28;51150;-51
2022/12/20 06:57:32;;;;;;;;;3.67;3.67;;;;;-147.17;100.00;-15917.19;4979840;28;51419;-51
2022/12/20 06:59:57;;;;;;;;;3.00;3.00;;;;;-147.17;100.00;-15917.19;4982230;28;51173;-49
2022/12/20 07:02:23;;;;;;;;;4.00;4.00;;;;;-147.17;100.00;-15917.19;4979934;28;52133;-49
2022/12/20 07:04:48;;;;;;;;;5.00;5.00;;;;;-147.17;100.00;-15917.19;4982717;28;51043;-53
2022/12/20 07:07:14;;;;;;;;;4.33;4.33;;;;;-147.17;100.00;-15917.19;4980469;28;51346;-51
2022/12/20 07:09:40;;;;;;;;;3.67;3.00;;;;;-147.17;100.00;-15917.19;4977838;28;51116;-53
2022/12/20 07:12:06;;;;;;;;;7.00;7.00;;;;;-147.17;100.00;-15917.19;4967804;28;51933;-50
2022/12/20 07:14:32;;;;;;;;;5.00;5.00;;;;;-147.17;100.00;-15917.19;4981155;28;51225;-50
2022/12/20 07:16:57;;;;;;;;;4.00;4.00;;;;;-147.17;100.00;-15917.19;4981613;28;51132;-51
2022/12/20 07:19:22;;;;;;;;;4.50;4.25;;;;;-147.17;100.00;-15917.19;4993758;28;51028;-51
2022/12/20 07:21:48;;;;;;;;;6.50;6.00;;;;;-147.17;100.00;-15917.19;4993040;28;50915;-51
2022/12/20 07:24:13;;;;;;;;;6.75;6.25;;;;;-147.17;100.00;-15917.19;4989431;28;51361;-51
2022/12/20 07:26:38;;;;;;;;;6.50;5.75;;;;;-147.17;100.00;-15917.19;4986560;28;51462;-53
2022/12/20 07:29:05;;;;;;;;;4.00;4.00;;;;;-147.17;100.00;-15917.19;4991789;28;51122;-52
2022/12/20 07:31:30;;;;;;;;;9.25;8.00;;;;;-147.17;100.00;-15917.19;4990908;28;51939;-53
2022/12/20 07:33:56;;;;;;;;;3.00;3.00;;;;;-147.17;100.00;-15917.19;4975192;28;51109;-52
2022/12/20 07:36:21;;;;;;;;;8.00;6.25;;;;;-147.17;100.00;-15917.19;4991737;28;51264;-52
2022/12/20 07:38:47;;;;;;;;;4.67;4.33;;;;;-147.17;100.00;-15917.19;4992838;28;51082;-53
2022/12/20 07:41:15;;;;;;;;;5.00;4.00;;;;;-147.17;100.00;-15917.19;4991951;28;51761;-53
2022/12/20 07:43:41;;;;;;;;;3.00;3.00;;;;;-147.17;100.00;-15917.19;4992475;28;50910;-52
2022/12/20 07:46:07;;;;;;;;;6.00;5.00;;;;;-147.17;100.00;-15917.19;4989928;28;51109;-55
2022/12/20 07:48:34;;;;;;;;;6.00;6.00;;;;;-147.17;100.00;-15917.19;4974910;28;50940;-53
2022/12/20 07:51:08;;;;;;;;;6.00;5.75;;;;;-147.17;100.00;-15917.19;4992482;28;53084;-49
2022/12/20 07:53:39;;;;;;;;;7.25;6.75;;;;;-147.17;100.00;-15917.19;4992405;28;51074;-52
2022/12/20 07:56:07;;;;;;;;;7.50;7.50;;;;;-147.17;100.00;-15917.19;4992213;28;51154;-51
2022/12/20 07:58:36;;;;;;;;;4.33;4.00;;;;;-147.17;100.00;-15917.19;4991958;28;51424;-52
2022/12/20 08:01:03;;;;;;;;;9.00;9.00;;;;;-147.17;100.00;-15917.19;4972519;28;51908;-54
2022/12/20 08:03:42;;;;;;;;;5.75;5.50;;;;;-147.17;100.00;-15917.19;4988932;28;51309;-53
2022/12/20 08:06:08;;;;;;;;;3.75;3.75;;;;;-147.17;100.00;-15917.19;4989909;28;51445;-54
2022/12/20 08:08:37;;;;;;;;;4.00;4.00;;;;;-147.17;100.00;-15917.19;4971901;28;51431;-53
2022/12/20 08:11:05;;;;;;;;;5.33;5.00;;;;;-147.17;100.00;-15917.19;4987503;28;51196;-53
2022/12/20 08:13:32;;;;;;;;;5.67;5.33;;;;;-147.17;100.00;-15917.19;4990296;28;51026;-51
2022/12/20 08:15:58;;;;;;;;;5.00;4.33;;;;;-147.17;100.00;-15917.19;4983215;28;52459;-55
2022/12/20 08:18:23;;;;;;;;;4.33;4.33;;;;;-147.17;100.00;-15917.19;4976727;28;51266;-52
2022/12/20 08:20:49;;;;;;;;;4.67;4.67;;;;;-147.17;100.00;-15917.19;4988012;28;52430;-50
2022/12/20 08:23:14;;;;;;;;;7.00;7.00;;;;;-147.17;100.00;-15917.19;4983867;28;51504;-51
2022/12/20 08:25:40;;;;;;;;;6.50;5.75;;;;;-147.17;100.00;-15917.19;4982272;28;51131;-53
2022/12/20 08:28:05;;;;;;;;;2.00;2.00;;;;;-147.17;100.00;-15917.19;5000503;28;51334;-54
2022/12/20 08:30:30;;;;;;;;;5.67;4.33;;;;;-147.17;100.00;-15917.19;4992438;28;51794;-51
2022/12/20 08:32:56;;;;;;;;;5.00;4.00;;;;;-147.17;100.00;-15917.19;4993144;28;51256;-51
2022/12/20 08:35:22;;;;;;;;;5.67;4.00;;;;;-147.17;100.00;-15917.19;4989365;28;52568;-52
2022/12/20 08:37:50;;;;;;;;;5.67;4.33;;;;;-147.17;100.00;-15917.19;4981556;28;51364;-52
2022/12/20 08:40:15;;;;;;;;;6.00;5.00;;;;;-147.17;100.00;-15917.19;4977397;28;51122;-52
2022/12/20 08:42:41;;;;;;;;;5.33;5.33;;;;;-147.17;100.00;-15917.19;4988034;28;51204;-52
2022/12/20 08:45:06;;;;;;;;;4.00;3.00;;;;;-147.17;100.00;-15917.19;4981723;28;51850;-53
2022/12/20 08:47:32;;;;;;;;;4.00;4.00;;;;;-147.17;100.00;-15917.19;4986739;28;51102;-53
2022/12/20 08:49:57;;;;;;;;;5.67;4.67;;;;;-147.17;100.00;-15917.19;4979736;28;51830;-53
2022/12/20 08:52:22;;;;;;;;;5.67;4.00;;;;;-147.17;100.00;-15917.19;4982488;28;51181;-53
2022/12/20 08:54:48;;;;;;;;;5.00;4.00;;;;;-147.17;100.00;-15917.19;4984381;28;51245;-52
2022/12/20 08:57:13;;;;;;;;;4.00;4.00;;;;;-147.17;100.00;-15917.19;4984067;28;51429;-51
2022/12/20 08:59:38;;;;;;;;;5.00;3.33;;;;;-147.17;100.00;-15917.19;4986537;28;51157;-49
2022/12/20 09:02:04;;;;;;;;;4.25;4.25;;;;;-147.17;100.00;-15917.19;4963941;28;51483;-53
2022/12/20 09:04:30;;;;;;;;;4.00;4.00;;;;;-147.17;100.00;-15917.19;4983227;28;51188;-54
2022/12/20 09:06:55;;;;;;;;;5.50;4.00;;;;;-147.17;100.00;-15917.19;4975464;28;51484;-50
2022/12/20 09:09:20;;;;;;;;;5.67;4.00;;;;;-147.17;100.00;-15917.19;4990088;28;52150;-52
2022/12/20 09:11:46;;;;;;;;;4.67;4.33;;;;;-147.17;100.00;-15917.19;4986524;28;51341;-51
2022/12/20 09:14:11;;;;;;;;;5.67;4.33;;;;;-147.17;100.00;-15917.19;4983520;28;51164;-51
2022/12/20 09:16:36;;;;;;;;;5.67;5.00;;;;;-147.17;100.00;-15917.19;4994451;28;50998;-50
2022/12/20 09:19:03;;;;;;;;;5.00;5.00;;;;;-147.17;100.00;-15917.19;4982852;28;51642;-52
2022/12/20 09:21:28;;;;;;;;;5.00;5.00;;;;;-147.17;100.00;-15917.19;4987248;28;51224;-53
2022/12/20 09:23:55;;;;;;;;;6.00;5.00;;;;;-147.17;100.00;-15917.19;4986351;28;51559;-50
2022/12/20 09:26:22;;;;;;;;;5.00;5.00;;;;;-147.17;100.00;-15917.19;4984030;28;51382;-50
2022/12/20 09:28:48;;;;;;;;;5.00;4.00;;;;;-147.17;100.00;-15917.19;4987460;28;52203;-50
2022/12/20 09:31:18;;;;;;;;;5.67;5.33;;;;;-147.17;100.00;-15917.19;4979980;28;51289;-52
2022/12/20 09:33:44;;;;;;;;;5.33;5.33;;;;;-147.17;100.00;-15917.19;4987764;28;51274;-51
2022/12/20 09:36:17;;;;;;;;;5.25;4.75;;;;;-147.17;100.00;-15917.19;4982594;28;52140;-51
2022/12/20 09:38:43;;;;;;;;;3.67;3.67;;;;;-147.17;100.00;-15917.19;4983809;28;52716;-51
2022/12/20 09:41:44;;;;;;;;;5.00;5.00;;;;;-147.17;100.00;-15917.19;4980093;28;51147;-53
2022/12/20 09:44:23;;;;;;;;;6.00;5.00;;;;;-147.17;100.00;-15917.19;4986420;28;51452;-53
2022/12/20 09:46:54;;;;;;;;;4.33;4.33;;;;;-147.17;100.00;-15917.19;4987903;28;51100;-52
2022/12/20 09:49:24;;;;;;;;;7.33;6.33;;;;;-147.17;100.00;-15917.19;4992995;28;51109;-55
2022/12/20 09:52:08;;;;;;;;;5.67;5.67;;;;;-147.17;100.00;-15917.19;4968982;28;51075;-52
2022/12/20 09:55:04;;;;;;;;;8.67;8.00;;;;;-147.17;100.00;-15917.19;4982719;28;51051;-53
2022/12/20 09:58:04;;;;;;;;;5.00;4.33;;;;;-147.17;100.00;-15917.19;4988815;28;51076;-57
2022/12/20 10:00:34;;;;;;;;;6.00;6.00;;;;;-147.17;100.00;-15917.19;4987645;28;51926;-55
2022/12/20 10:03:03;;;;;;;;;5.00;4.00;;;;;-147.17;100.00;-15917.19;4993278;28;51219;-56
2022/12/20 10:05:41;;;;;;;;;4.67;4.00;;;;;-147.17;100.00;-15917.19;4974475;28;51135;-61
2022/12/20 10:08:22;;;;;;;;;3.33;3.33;;;;;-147.17;100.00;-15917.19;4993829;28;51155;-56
2022/12/20 10:10:55;;;;;;;;;4.00;4.00;;;;;-147.17;100.00;-15917.19;4980225;28;51996;-57
2022/12/20 10:13:54;;;;;;;;;5.33;3.67;;;;;-147.17;100.00;-15917.19;4983479;28;51091;-57
2022/12/20 10:16:42;;;;;;;;;4.25;4.25;;;;;-147.17;100.00;-15917.19;4960680;28;51414;-57
2022/12/20 10:19:20;;;;;;;;;5.33;4.00;;;;;-147.17;100.00;-15917.19;4993356;28;51167;-56
2022/12/20 10:22:03;;;;;;;;;7.00;6.00;;;;;-147.17;100.00;-15917.19;4991257;28;51221;-55
2022/12/20 10:24:30;;;;;;;;;7.67;7.00;;;;;-147.17;100.00;-15917.19;4994002;28;51042;-59
2022/12/20 10:27:01;;;;;;;;;9.25;7.25;;;;;-147.17;100.00;-15917.19;4993570;28;51346;-57
2022/12/20 10:29:26;;;;;;;;;5.67;4.67;;;;;-147.17;100.00;-15917.19;4993998;28;51245;-57
2022/12/20 10:31:58;;;;;;;;;10.00;10.00;;;;;-147.17;100.00;-15917.19;4986499;28;52119;-57
2022/12/20 10:34:24;;;;;;;;;5.00;4.00;;;;;-147.17;100.00;-15917.19;4993305;28;50916;-57
2022/12/20 10:37:10;;;;;;;;;4.67;4.67;;;;;-147.17;100.00;-15917.19;4975031;28;51125;-57
2022/12/20 10:40:02;;;;;;;;;6.33;6.33;;;;;-147.17;100.00;-15917.19;4976281;28;51287;-57
2022/12/20 10:42:39;;;;;;;;;5.33;5.33;;;;;-147.17;100.00;-15917.19;4988567;28;51988;-59
2022/12/20 10:45:33;;;;;;;;;5.67;5.00;;;;;-147.17;100.00;-15917.19;4993429;28;50985;-58
2022/12/20 10:48:02;;;;;;;;;13.00;12.00;;;;;-147.17;100.00;-15917.19;4992411;28;51093;-57
2022/12/20 10:50:28;;;;;;;;;7.00;5.67;;;;;-147.17;100.00;-15917.19;4992332;28;51174;-56
2022/12/20 10:53:18;;;;;;;;;8.33;7.33;;;;;-147.17;100.00;-15917.19;4992969;28;51117;-57
2022/12/20 10:55:43;;;;;;;;;8.00;7.00;;;;;-147.17;100.00;-15917.19;4993616;28;50957;-57
2022/12/20 10:58:32;;;;;;;;;7.00;7.00;;;;;-147.17;100.00;-15917.19;4993315;28;51179;-58
2022/12/20 11:01:13;;;;;;;;;11.00;11.00;;;;;-147.17;100.00;-15917.19;4981760;28;51052;-58
2022/12/20 11:03:53;;;;;;;;;12.00;11.00;;;;;-147.17;100.00;-15917.19;4993063;28;51122;-56
2022/12/20 11:06:20;;;;;;;;;7.00;7.00;;;;;-147.17;100.00;-15917.19;4993228;28;51110;-57
2022/12/20 11:08:47;;;;;;;;;7.00;7.00;;;;;-147.17;100.00;-15917.19;4993157;28;51190;-58
2022/12/20 11:11:23;;;;;;;;;7.50;6.50;;;;;-147.17;100.00;-15917.19;4983684;28;50909;-57
2022/12/20 11:13:50;;;;;;;;;10.00;8.33;;;;;-147.17;100.00;-15917.19;4975405;28;52037;-56
2022/12/20 11:16:25;;;;;;;;;16.75;15.75;;;;;-147.17;100.00;-15917.19;4993259;28;51000;-56
2022/12/20 11:19:01;;;;;;;;;8.75;8.75;;;;;-147.17;100.00;-15917.19;4992897;28;51193;-57
2022/12/20 11:21:39;;;;;;;;;9.75;7.75;;;;;-147.17;100.00;-15917.19;4992975;28;51153;-56
2022/12/20 11:24:04;;;;;;;;;11.25;10.75;;;;;-147.17;100.00;-15917.19;4992720;28;52854;-58